Time;durP1;ratioP1;P1;durP2;ratioP2;P2;SDS_P1;SDS_P2;PMS_P1;PMS_P2;Temp;Humidity;BMP_temperature;BMP_pressure;BME280_temperature;BME280_humidity;BME280_pressure;Samples;Min_cycle;Max_cycle;Signal;HPM_P1;HPM_P2
2021/08/06 00:00:31;;;;;;;4.87;4.37;;;14.90;99.90;;;;;;4995543;28;20898;-81
2021/08/06 00:02:57;;;;;;;6.37;5.87;;;14.90;99.90;;;;;;4994480;28;20218;-81
2021/08/06 00:05:22;;;;;;;4.93;4.60;;;14.90;99.90;;;;;;4995318;28;20167;-81
2021/08/06 00:07:48;;;;;;;5.90;5.30;;;14.90;99.90;;;;;;4994411;28;20671;-81
2021/08/06 00:10:14;;;;;;;4.73;4.43;;;14.90;99.90;;;;;;4995487;28;20601;-81
2021/08/06 00:12:40;;;;;;;4.90;4.60;;;14.90;99.90;;;;;;4995352;28;20163;-81
2021/08/06 00:15:07;;;;;;;5.97;5.50;;;14.80;99.90;;;;;;4995324;28;20313;-81
2021/08/06 00:17:32;;;;;;;5.80;5.30;;;14.80;99.90;;;;;;4994997;28;20418;-81
2021/08/06 00:19:58;;;;;;;5.50;5.10;;;14.80;99.90;;;;;;4995218;28;20417;-80
2021/08/06 00:22:23;;;;;;;5.20;4.90;;;14.80;99.90;;;;;;4995186;28;20179;-81
2021/08/06 00:24:49;;;;;;;4.87;4.53;;;14.70;99.90;;;;;;4977956;28;20179;-81
2021/08/06 00:27:15;;;;;;;6.00;5.60;;;14.70;99.90;;;;;;4994911;28;20610;-81
2021/08/06 00:29:40;;;;;;;4.93;4.63;;;14.90;99.90;;;;;;4995761;28;20175;-81
2021/08/06 00:32:07;;;;;;;5.60;5.10;;;14.80;99.90;;;;;;4995065;28;20175;-80
2021/08/06 00:34:32;;;;;;;5.97;5.47;;;14.70;99.90;;;;;;4994011;28;20192;-81
2021/08/06 00:36:58;;;;;;;5.47;5.07;;;14.70;99.90;;;;;;4994086;28;20477;-81
2021/08/06 00:39:24;;;;;;;5.00;4.60;;;14.60;99.90;;;;;;4994863;28;20202;-81
2021/08/06 00:41:49;;;;;;;4.83;4.53;;;14.60;99.90;;;;;;4994519;28;20251;-81
2021/08/06 00:44:15;;;;;;;6.10;5.70;;;14.60;99.90;;;;;;4994768;28;20191;-81
2021/08/06 00:46:41;;;;;;;5.23;4.83;;;14.60;99.90;;;;;;4977488;28;20196;-81
2021/08/06 00:49:06;;;;;;;5.30;4.90;;;14.50;99.90;;;;;;4994739;28;20194;-81
2021/08/06 00:51:33;;;;;;;6.20;5.80;;;14.50;99.90;;;;;;4994763;28;20159;-81
2021/08/06 00:53:58;;;;;;;5.67;5.17;;;14.50;99.90;;;;;;4994702;28;20547;-81
2021/08/06 00:56:24;;;;;;;5.77;5.37;;;14.50;99.90;;;;;;4994501;28;20410;-81
2021/08/06 00:58:50;;;;;;;6.00;5.57;;;14.50;99.90;;;;;;4994663;28;20414;-81
2021/08/06 01:01:19;;;;;;;6.27;5.73;;;14.50;99.90;;;;;;4993533;28;20193;-81
2021/08/06 01:04:02;;;;;;;6.10;5.70;;;14.50;99.90;;;;;;4994604;28;20171;-81
2021/08/06 01:06:56;;;;;;;5.90;5.50;;;14.50;99.90;;;;;;4994505;28;20910;-81
2021/08/06 01:09:29;;;;;;;7.93;7.13;;;14.50;99.90;;;;;;4994525;28;20445;-81
2021/08/06 01:11:58;;;;;;;6.80;6.20;;;14.60;99.90;;;;;;4994567;28;20383;-81
2021/08/06 01:14:28;;;;;;;6.20;5.70;;;14.60;99.90;;;;;;4977277;28;20493;-81
2021/08/06 01:16:57;;;;;;;7.23;6.63;;;14.60;99.90;;;;;;4977306;28;20418;-81
2021/08/06 01:19:31;;;;;;;6.13;5.80;;;14.60;99.90;;;;;;4994738;28;20864;-81
2021/08/06 01:22:08;;;;;;;6.40;6.00;;;14.60;99.90;;;;;;4994329;28;20410;-81
2021/08/06 01:24:35;;;;;;;7.30;6.70;;;14.60;99.90;;;;;;4994800;28;20998;-81
2021/08/06 01:27:01;;;;;;;5.97;5.57;;;14.60;99.90;;;;;;4977121;28;20478;-81
2021/08/06 01:29:27;;;;;;;6.27;5.77;;;14.60;99.90;;;;;;4995357;28;20904;-81
2021/08/06 01:31:52;;;;;;;6.50;6.00;;;14.60;99.90;;;;;;4998306;28;20402;-81
2021/08/06 01:34:18;;;;;;;6.80;6.30;;;14.60;99.90;;;;;;4998353;28;20191;-81
2021/08/06 01:36:44;;;;;;;8.07;7.37;;;14.60;99.90;;;;;;4997271;28;20175;-81
2021/08/06 01:39:10;;;;;;;6.53;5.97;;;14.60;99.90;;;;;;4998127;28;20167;-81
2021/08/06 01:41:57;;;;;;;6.50;6.00;;;14.60;99.90;;;;;;4980928;28;20186;-81
2021/08/06 01:44:47;;;;;;;6.23;5.70;;;14.60;99.90;;;;;;4980882;28;20406;-81
2021/08/06 01:47:24;;;;;;;7.73;7.03;;;14.60;99.90;;;;;;4998059;28;20441;-81
2021/08/06 01:50:04;;;;;;;7.20;6.57;;;14.60;99.90;;;;;;4998051;28;20400;-81
2021/08/06 01:52:59;;;;;;;7.50;6.90;;;14.60;99.90;;;;;;4998038;28;20386;-81
2021/08/06 01:55:30;;;;;;;6.80;6.10;;;14.50;99.90;;;;;;4980792;28;20422;-81
2021/08/06 01:57:57;;;;;;;6.67;6.13;;;14.50;99.90;;;;;;4980572;28;20406;-81
2021/08/06 02:00:25;;;;;;;6.80;6.30;;;14.50;99.90;;;;;;4980563;28;20433;-81
2021/08/06 02:02:52;;;;;;;7.03;6.57;;;14.50;99.90;;;;;;4997768;28;20407;-81
2021/08/06 02:05:19;;;;;;;7.13;6.53;;;14.50;99.90;;;;;;4980485;28;20422;-81
2021/08/06 02:07:45;;;;;;;7.07;6.57;;;14.50;99.90;;;;;;4997482;28;20829;-81
2021/08/06 02:10:12;;;;;;;7.90;7.20;;;14.50;99.90;;;;;;4997692;28;20410;-81
2021/08/06 02:12:38;;;;;;;7.70;6.93;;;14.50;99.90;;;;;;4997591;28;20171;-81
2021/08/06 02:15:05;;;;;;;6.97;6.57;;;14.50;99.90;;;;;;4996559;28;20732;-81
2021/08/06 02:17:31;;;;;;;7.00;6.40;;;14.50;99.90;;;;;;4997499;28;20624;-81
2021/08/06 02:19:58;;;;;;;6.93;6.43;;;14.40;99.90;;;;;;4980272;28;20437;-81
2021/08/06 02:22:24;;;;;;;6.13;5.70;;;14.40;99.90;;;;;;4980273;28;20539;-81
2021/08/06 02:24:51;;;;;;;7.37;6.67;;;14.40;99.90;;;;;;4997455;28;20768;-81
2021/08/06 02:27:18;;;;;;;7.97;7.03;;;14.40;99.90;;;;;;4997564;28;20454;-81
2021/08/06 02:29:46;;;;;;;7.33;6.73;;;14.40;99.90;;;;;;4997330;28;20461;-81
2021/08/06 02:32:11;;;;;;;8.97;8.17;;;14.40;99.90;;;;;;4997231;28;20410;-81
2021/08/06 02:34:38;;;;;;;7.50;7.00;;;14.30;99.90;;;;;;4980152;28;20410;-81
2021/08/06 02:37:04;;;;;;;6.87;6.37;;;14.20;99.90;;;;;;4997191;28;20179;-81
2021/08/06 02:39:31;;;;;;;7.53;7.03;;;14.20;99.90;;;;;;4996774;28;20441;-81
2021/08/06 02:41:59;;;;;;;6.27;5.77;;;14.20;99.90;;;;;;4996376;28;20860;-81
2021/08/06 02:44:26;;;;;;;7.53;6.93;;;14.20;99.90;;;;;;4996967;28;20801;-81
2021/08/06 02:46:52;;;;;;;7.60;7.00;;;14.10;99.90;;;;;;4979772;28;20515;-81
2021/08/06 02:49:18;;;;;;;7.70;7.10;;;14.10;99.90;;;;;;4996867;28;20773;-81
2021/08/06 02:51:44;;;;;;;7.70;7.10;;;14.10;99.90;;;;;;4996877;28;20430;-81
2021/08/06 02:54:09;;;;;;;7.17;6.57;;;14.10;99.90;;;;;;4996747;28;20174;-81
2021/08/06 02:56:35;;;;;;;7.47;6.87;;;14.00;99.90;;;;;;4996865;28;20487;-81
2021/08/06 02:59:01;;;;;;;7.50;6.90;;;14.00;99.90;;;;;;4996612;28;20181;-81
2021/08/06 03:01:27;;;;;;;6.90;6.40;;;14.00;99.90;;;;;;4996694;28;20314;-81
2021/08/06 03:03:52;;;;;;;7.20;6.70;;;14.00;99.90;;;;;;4996644;28;20533;-81
2021/08/06 03:06:18;;;;;;;6.70;6.27;;;14.00;99.90;;;;;;4996644;28;20245;-81
2021/08/06 03:08:44;;;;;;;7.43;6.87;;;13.90;99.90;;;;;;4996715;28;20217;-81
2021/08/06 03:11:10;;;;;;;7.23;6.60;;;13.90;99.90;;;;;;4996656;28;20178;-81
2021/08/06 03:13:35;;;;;;;7.50;6.80;;;13.90;99.90;;;;;;4996489;28;20171;-81
2021/08/06 03:16:01;;;;;;;7.10;6.60;;;13.90;99.90;;;;;;4979224;28;20167;-81
2021/08/06 03:18:27;;;;;;;7.50;7.00;;;13.90;99.90;;;;;;4996447;28;20185;-81
2021/08/06 03:20:55;;;;;;;7.77;7.17;;;13.90;99.90;;;;;;4996425;28;20627;-81
2021/08/06 03:23:20;;;;;;;7.90;7.10;;;13.90;99.90;;;;;;4979132;28;20179;-81
2021/08/06 03:25:46;;;;;;;6.93;6.53;;;13.90;99.90;;;;;;4996302;28;20448;-81
2021/08/06 03:28:12;;;;;;;7.17;6.77;;;13.90;99.90;;;;;;4996200;28;20534;-81
2021/08/06 03:30:37;;;;;;;6.90;6.40;;;13.90;99.90;;;;;;4996233;28;20159;-81
2021/08/06 03:33:03;;;;;;;6.93;6.43;;;13.90;99.90;;;;;;4996118;28;20164;-81
2021/08/06 03:35:29;;;;;;;7.97;7.27;;;13.90;99.90;;;;;;4978865;28;20233;-81
2021/08/06 03:37:54;;;;;;;7.97;7.37;;;13.80;99.90;;;;;;4996047;28;20172;-81
2021/08/06 03:40:20;;;;;;;8.40;7.73;;;13.90;99.90;;;;;;4996037;28;20171;-81
2021/08/06 03:42:46;;;;;;;8.17;7.57;;;13.90;99.90;;;;;;4995971;28;20546;-81
2021/08/06 03:45:12;;;;;;;7.37;6.87;;;13.80;99.90;;;;;;4995886;28;20270;-81
2021/08/06 03:47:37;;;;;;;7.10;6.53;;;13.80;99.90;;;;;;4995920;28;20226;-80
2021/08/06 03:50:05;;;;;;;8.43;7.73;;;13.80;99.90;;;;;;4995968;28;20438;-81
2021/08/06 03:52:31;;;;;;;7.70;7.10;;;13.80;99.90;;;;;;4995411;28;20560;-81
2021/08/06 03:54:57;;;;;;;9.33;7.47;;;13.80;99.90;;;;;;4995653;28;20746;-81
2021/08/06 03:57:23;;;;;;;8.23;7.63;;;13.80;99.90;;;;;;4995670;28;20411;-81
2021/08/06 03:59:48;;;;;;;7.30;6.70;;;13.80;99.90;;;;;;4995518;28;20194;-81
2021/08/06 04:02:14;;;;;;;9.57;8.77;;;13.80;99.90;;;;;;4995653;28;20202;-81
2021/08/06 04:04:40;;;;;;;11.00;9.97;;;13.80;99.90;;;;;;4995381;28;20183;-81
2021/08/06 04:07:05;;;;;;;10.47;9.40;;;13.70;99.90;;;;;;4995456;28;20346;-81
2021/08/06 04:09:31;;;;;;;9.30;8.43;;;13.70;99.90;;;;;;4995413;28;20174;-81
2021/08/06 04:11:57;;;;;;;10.60;7.50;;;13.80;99.90;;;;;;4995494;28;20251;-81
2021/08/06 04:14:22;;;;;;;8.00;7.40;;;13.80;99.90;;;;;;4995769;28;20498;-81
2021/08/06 04:16:48;;;;;;;8.03;7.40;;;13.80;99.90;;;;;;4995362;28;20182;-81
2021/08/06 04:19:15;;;;;;;9.50;8.70;;;13.80;99.90;;;;;;4995437;28;20167;-81
2021/08/06 04:21:41;;;;;;;10.50;8.70;;;13.80;99.90;;;;;;4995255;28;20262;-81
2021/08/06 04:24:06;;;;;;;8.63;7.93;;;13.90;99.90;;;;;;4994990;28;20410;-81
2021/08/06 04:26:32;;;;;;;8.17;7.47;;;13.90;99.90;;;;;;4995132;28;20920;-81
2021/08/06 04:28:58;;;;;;;9.93;9.03;;;13.90;99.90;;;;;;4977898;28;20184;-81
2021/08/06 04:31:24;;;;;;;9.30;8.50;;;13.90;99.90;;;;;;4995009;28;20175;-81
2021/08/06 04:33:49;;;;;;;9.53;8.70;;;13.90;99.90;;;;;;4977865;28;20178;-81
2021/08/06 04:36:15;;;;;;;10.37;9.47;;;14.00;99.90;;;;;;4977732;28;20175;-81
2021/08/06 04:38:42;;;;;;;9.80;9.00;;;14.10;99.90;;;;;;4994895;28;20167;-81
2021/08/06 04:41:08;;;;;;;10.90;10.00;;;14.10;99.90;;;;;;4993914;28;20576;-81
2021/08/06 04:43:34;;;;;;;10.30;9.20;;;14.10;99.90;;;;;;4994924;28;20744;-81
2021/08/06 04:46:00;;;;;;;10.67;9.80;;;14.10;99.90;;;;;;4977517;28;20410;-81
2021/08/06 04:48:25;;;;;;;12.83;11.53;;;14.10;99.90;;;;;;4994721;28;20199;-81
2021/08/06 04:50:51;;;;;;;11.00;10.10;;;14.20;99.90;;;;;;4977595;28;20310;-81
2021/08/06 04:53:17;;;;;;;10.60;9.20;;;14.20;99.90;;;;;;4993734;28;20321;-81
2021/08/06 04:55:42;;;;;;;12.87;10.80;;;14.20;99.90;;;;;;4994576;28;20501;-81
2021/08/06 04:58:08;;;;;;;11.43;10.43;;;14.20;99.90;;;;;;4994628;28;20178;-81
2021/08/06 05:00:34;;;;;;;12.00;10.90;;;14.30;99.90;;;;;;4994583;28;20183;-81
2021/08/06 05:03:00;;;;;;;10.97;9.93;;;14.30;99.90;;;;;;4993139;28;20266;-81
2021/08/06 05:05:26;;;;;;;14.30;12.90;;;14.40;99.90;;;;;;4994526;28;20497;-81
2021/08/06 05:07:53;;;;;;;11.57;10.50;;;14.40;99.90;;;;;;4994429;28;20198;-81
2021/08/06 05:10:21;;;;;;;13.60;12.20;;;14.50;99.90;;;;;;4977407;28;20338;-81
2021/08/06 05:12:47;;;;;;;13.10;11.90;;;14.50;99.90;;;;;;4994404;28;20410;-81
2021/08/06 05:15:13;;;;;;;13.83;12.57;;;14.60;99.90;;;;;;4994462;28;20417;-81
2021/08/06 05:17:39;;;;;;;14.87;12.23;;;14.60;99.90;;;;;;4977233;28;20414;-81
2021/08/06 05:20:05;;;;;;;13.13;11.93;;;14.60;99.90;;;;;;4994383;28;20809;-81
2021/08/06 05:22:31;;;;;;;15.90;14.40;;;14.60;99.90;;;;;;4994327;28;20245;-81
2021/08/06 05:24:57;;;;;;;15.90;13.80;;;14.70;99.90;;;;;;4994324;28;20414;-81
2021/08/06 05:27:23;;;;;;;15.83;14.33;;;14.70;99.90;;;;;;4977133;28;20461;-81
2021/08/06 05:29:49;;;;;;;16.03;14.50;;;14.70;99.90;;;;;;4994397;28;20174;-81
2021/08/06 05:32:14;;;;;;;15.83;14.37;;;14.80;99.90;;;;;;4994350;28;20171;-81
2021/08/06 05:34:40;;;;;;;16.73;15.03;;;14.80;99.90;;;;;;4994333;28;20172;-81
2021/08/06 05:37:06;;;;;;;16.27;14.67;;;14.80;99.90;;;;;;4994294;28;20180;-81
2021/08/06 05:39:31;;;;;;;14.30;13.00;;;14.80;99.90;;;;;;4994265;28;20186;-81
2021/08/06 05:41:57;;;;;;;15.80;14.20;;;14.80;99.90;;;;;;4994173;28;20179;-81
2021/08/06 05:44:23;;;;;;;18.27;14.80;;;14.80;99.90;;;;;;4976900;28;20241;-81
2021/08/06 05:46:48;;;;;;;16.60;13.50;;;14.90;99.90;;;;;;4994107;28;20199;-81
2021/08/06 05:49:14;;;;;;;15.83;14.20;;;14.90;99.90;;;;;;4994181;28;20231;-81
2021/08/06 05:51:40;;;;;;;14.17;12.67;;;15.00;99.90;;;;;;4994106;28;20179;-81
2021/08/06 05:54:06;;;;;;;15.80;14.13;;;15.00;99.90;;;;;;4994107;28;20186;-81
2021/08/06 05:56:31;;;;;;;14.40;12.50;;;15.10;99.90;;;;;;4994112;28;20175;-81
2021/08/06 05:58:57;;;;;;;13.90;12.57;;;15.10;99.90;;;;;;4994026;28;20601;-81
2021/08/06 06:01:23;;;;;;;15.67;14.07;;;15.10;99.90;;;;;;4994084;28;20605;-81
2021/08/06 06:03:50;;;;;;;17.47;15.73;;;15.10;99.90;;;;;;4993961;28;20207;-81
2021/08/06 06:06:16;;;;;;;15.40;13.90;;;15.20;99.90;;;;;;4994125;28;20454;-81
2021/08/06 06:08:41;;;;;;;15.10;13.50;;;15.20;99.90;;;;;;4994082;28;20621;-81
2021/08/06 06:11:07;;;;;;;14.33;12.83;;;15.20;99.90;;;;;;4993978;28;20234;-81
2021/08/06 06:13:33;;;;;;;15.20;13.70;;;15.20;99.90;;;;;;4994001;28;20168;-82
2021/08/06 06:15:59;;;;;;;14.87;13.33;;;15.30;99.90;;;;;;4996574;28;20190;-81
2021/08/06 06:18:24;;;;;;;17.00;14.40;;;15.30;99.90;;;;;;4997575;28;20206;-81
2021/08/06 06:20:51;;;;;;;15.70;14.10;;;15.40;99.90;;;;;;4997603;28;20203;-81
2021/08/06 06:23:17;;;;;;;16.90;15.23;;;15.50;99.90;;;;;;4980218;28;20202;-81
2021/08/06 06:25:43;;;;;;;15.93;14.33;;;15.50;99.90;;;;;;4997282;28;20411;-81
2021/08/06 06:28:09;;;;;;;15.90;14.30;;;15.60;99.90;;;;;;4997273;28;20829;-81
2021/08/06 06:30:36;;;;;;;14.83;12.90;;;15.70;99.90;;;;;;4997360;28;20177;-81
2021/08/06 06:33:03;;;;;;;15.93;14.30;;;15.70;99.90;;;;;;4980364;28;20418;-80
2021/08/06 06:35:30;;;;;;;14.30;12.73;;;15.80;99.90;;;;;;4997177;28;20456;-81
2021/08/06 06:37:56;;;;;;;13.13;11.93;;;15.80;99.90;;;;;;4997138;28;20426;-81
2021/08/06 06:40:24;;;;;;;14.63;13.07;;;15.90;99.90;;;;;;4979980;28;20425;-81
2021/08/06 06:42:50;;;;;;;15.20;13.90;;;16.00;99.90;;;;;;4996060;28;20450;-81
2021/08/06 06:45:16;;;;;;;14.87;13.00;;;16.00;99.90;;;;;;4979791;28;20848;-81
2021/08/06 06:47:45;;;;;;;15.00;13.50;;;16.10;99.90;;;;;;4979754;28;20461;-81
2021/08/06 06:50:14;;;;;;;13.37;12.10;;;16.10;99.90;;;;;;4997016;28;20445;-80
2021/08/06 06:52:41;;;;;;;13.37;12.20;;;16.10;99.90;;;;;;4996743;28;20434;-81
2021/08/06 06:55:09;;;;;;;12.53;11.33;;;16.20;99.90;;;;;;4996890;28;20414;-81
2021/08/06 06:57:45;;;;;;;14.10;12.60;;;16.20;99.90;;;;;;4996763;28;20403;-81
2021/08/06 07:00:12;;;;;;;12.57;10.97;;;16.40;99.90;;;;;;4996534;28;20434;-81
2021/08/06 07:02:39;;;;;;;12.43;11.30;;;16.40;99.90;;;;;;4996763;28;20887;-81
2021/08/06 07:05:05;;;;;;;11.27;10.20;;;16.50;99.90;;;;;;4996676;28;20411;-80
2021/08/06 07:07:31;;;;;;;10.67;9.77;;;16.60;99.90;;;;;;4996533;28;20790;-81
2021/08/06 07:09:57;;;;;;;11.07;10.10;;;16.60;99.90;;;;;;4996486;28;20414;-81
2021/08/06 07:12:23;;;;;;;10.90;10.00;;;16.70;99.90;;;;;;4996951;28;20482;-81
2021/08/06 07:14:48;;;;;;;10.90;9.80;;;16.80;99.90;;;;;;4979443;28;20174;-81
2021/08/06 07:17:14;;;;;;;10.30;9.30;;;16.90;99.90;;;;;;4996478;28;20249;-81
2021/08/06 07:19:39;;;;;;;10.80;9.70;;;17.00;99.90;;;;;;4996274;28;20207;-81
2021/08/06 07:22:05;;;;;;;10.07;9.03;;;17.00;99.90;;;;;;4996450;28;20675;-81
2021/08/06 07:24:31;;;;;;;10.07;9.17;;;17.20;99.90;;;;;;4996321;28;20163;-81
2021/08/06 07:26:56;;;;;;;11.30;10.20;;;17.20;99.90;;;;;;4994480;28;20637;-81
2021/08/06 07:29:25;;;;;;;10.93;9.83;;;17.30;99.90;;;;;;4996071;28;20218;-81
2021/08/06 07:31:51;;;;;;;9.60;8.90;;;17.20;99.90;;;;;;4996248;28;20172;-81
2021/08/06 07:34:16;;;;;;;11.30;10.30;;;17.30;99.90;;;;;;4996272;28;20407;-81
2021/08/06 07:36:42;;;;;;;9.37;8.57;;;17.40;99.90;;;;;;4996026;28;20174;-81
2021/08/06 07:39:08;;;;;;;10.77;9.80;;;17.40;99.90;;;;;;4995976;28;20540;-81
2021/08/06 07:41:34;;;;;;;9.63;8.83;;;17.60;99.90;;;;;;4996073;28;20407;-81
2021/08/06 07:44:00;;;;;;;10.60;9.70;;;17.70;99.90;;;;;;4995863;28;20266;-81
2021/08/06 07:46:26;;;;;;;9.97;9.13;;;17.80;99.90;;;;;;4995929;28;20489;-81
2021/08/06 07:48:52;;;;;;;10.23;9.30;;;17.80;99.90;;;;;;4995776;28;20882;-81
2021/08/06 07:51:18;;;;;;;9.80;9.00;;;17.90;99.90;;;;;;4995853;28;20159;-81
2021/08/06 07:53:43;;;;;;;8.90;8.10;;;17.90;99.90;;;;;;4995814;28;20505;-81
2021/08/06 07:56:09;;;;;;;9.10;8.40;;;17.90;99.90;;;;;;4978629;28;20203;-81
2021/08/06 07:58:35;;;;;;;9.13;8.43;;;18.00;99.90;;;;;;4995653;28;20171;-81
2021/08/06 08:01:00;;;;;;;8.53;7.93;;;18.10;99.90;;;;;;4995471;28;20198;-81
2021/08/06 08:03:26;;;;;;;9.20;8.50;;;18.30;99.90;;;;;;4978411;28;20954;-81
2021/08/06 08:05:51;;;;;;;8.70;8.00;;;18.40;99.90;;;;;;4995520;28;20178;-81
2021/08/06 08:08:17;;;;;;;10.00;9.20;;;18.30;99.90;;;;;;4995432;28;20194;-81
2021/08/06 08:10:43;;;;;;;10.40;9.53;;;18.40;99.90;;;;;;4995443;28;20657;-81
2021/08/06 08:13:08;;;;;;;9.93;9.13;;;18.50;99.90;;;;;;4995458;28;20182;-81
2021/08/06 08:15:34;;;;;;;10.00;9.27;;;18.50;99.90;;;;;;4995380;28;20175;-81
2021/08/06 08:18:00;;;;;;;10.30;9.47;;;18.60;99.90;;;;;;4995277;28;20179;-81
2021/08/06 08:20:26;;;;;;;9.10;8.40;;;18.70;99.90;;;;;;4978266;28;20199;-81
2021/08/06 08:22:51;;;;;;;8.17;7.60;;;18.70;99.90;;;;;;4978125;28;20211;-81
2021/08/06 08:25:17;;;;;;;9.40;8.60;;;18.80;99.90;;;;;;4995209;28;20625;-81
2021/08/06 08:27:43;;;;;;;9.13;8.43;;;18.90;99.90;;;;;;4995053;28;20527;-81
2021/08/06 08:30:09;;;;;;;9.97;9.17;;;19.10;99.90;;;;;;4977827;28;20696;-81
2021/08/06 08:32:35;;;;;;;9.70;9.00;;;19.20;99.90;;;;;;4995144;28;20250;-81
2021/08/06 08:35:02;;;;;;;8.53;7.93;;;19.30;99.90;;;;;;4995200;28;20772;-81
2021/08/06 08:37:28;;;;;;;10.10;9.30;;;19.40;99.90;;;;;;4995013;28;20407;-81
2021/08/06 08:39:53;;;;;;;9.03;8.33;;;19.40;99.90;;;;;;4994936;28;20910;-81
2021/08/06 08:42:21;;;;;;;8.97;8.37;;;19.40;99.90;;;;;;4994795;28;20214;-81
2021/08/06 08:44:48;;;;;;;9.17;8.47;;;19.50;99.90;;;;;;4994973;28;20185;-81
2021/08/06 08:47:20;;;;;;;9.23;8.43;;;19.60;99.90;;;;;;4994800;28;20533;-81
2021/08/06 08:49:50;;;;;;;9.50;8.80;;;19.80;99.90;;;;;;4994654;28;20460;-81
2021/08/06 08:52:16;;;;;;;8.60;8.00;;;19.90;99.90;;;;;;4994750;28;20399;-81
2021/08/06 08:54:42;;;;;;;9.03;8.30;;;20.00;99.90;;;;;;4994767;28;20422;-82
2021/08/06 08:57:07;;;;;;;8.50;7.90;;;20.10;99.90;;;;;;4994885;28;20438;-82
2021/08/06 08:59:33;;;;;;;8.83;8.07;;;20.20;99.90;;;;;;4977327;28;20191;-81
2021/08/06 09:01:59;;;;;;;7.63;7.03;;;20.30;99.90;;;;;;4994545;28;20185;-82
2021/08/06 09:04:29;;;;;;;7.03;6.53;;;20.40;99.90;;;;;;4994883;28;20175;-81
2021/08/06 09:06:56;;;;;;;8.60;7.93;;;20.50;99.90;;;;;;4994363;28;20528;-82
2021/08/06 09:09:24;;;;;;;8.90;8.20;;;20.60;99.90;;;;;;4994576;28;20415;-82
2021/08/06 09:12:01;;;;;;;7.53;7.13;;;20.70;99.90;;;;;;4977352;28;20414;-82
2021/08/06 09:14:29;;;;;;;7.57;7.07;;;20.80;99.90;;;;;;4994383;28;20391;-81
2021/08/06 09:17:03;;;;;;;7.47;6.97;;;20.80;99.90;;;;;;4994505;28;20419;-82
2021/08/06 09:19:43;;;;;;;7.80;7.30;;;21.00;99.90;;;;;;4994465;28;20538;-82
2021/08/06 09:22:20;;;;;;;7.97;7.37;;;21.10;99.90;;;;;;4994492;28;20391;-82
2021/08/06 09:25:07;;;;;;;7.90;7.40;;;21.30;99.90;;;;;;4994420;28;20383;-82
2021/08/06 09:27:35;;;;;;;7.90;7.30;;;21.50;99.90;;;;;;4994631;28;20450;-82
2021/08/06 09:30:05;;;;;;;7.63;7.03;;;21.60;99.90;;;;;;4977062;28;20411;-82
2021/08/06 09:32:50;;;;;;;7.70;7.10;;;21.70;99.90;;;;;;4994349;28;20402;-82
2021/08/06 09:35:18;;;;;;;7.53;6.93;;;21.90;99.90;;;;;;4977030;28;20421;-81
2021/08/06 09:37:44;;;;;;;8.00;7.20;;;22.00;99.90;;;;;;4994199;28;20896;-82
2021/08/06 09:40:39;;;;;;;7.27;6.77;;;22.00;99.90;;;;;;4994226;28;20917;-82
2021/08/06 09:43:13;;;;;;;6.93;6.43;;;22.20;99.90;;;;;;4992919;28;20430;-82
2021/08/06 09:45:41;;;;;;;6.90;6.37;;;22.30;99.90;;;;;;4993238;28;20410;-82
2021/08/06 09:48:10;;;;;;;7.07;6.57;;;22.50;99.90;;;;;;4994272;28;20537;-82
2021/08/06 09:50:43;;;;;;;7.70;7.10;;;22.60;99.90;;;;;;4996380;28;20407;-82
2021/08/06 09:53:09;;;;;;;7.60;7.00;;;22.70;99.90;;;;;;4998073;28;20411;-82
2021/08/06 09:55:38;;;;;;;7.70;7.10;;;22.70;99.90;;;;;;4997867;28;20394;-82
2021/08/06 09:58:07;;;;;;;8.07;7.47;;;22.80;99.90;;;;;;4998259;28;20417;-82
2021/08/06 10:00:37;;;;;;;8.63;8.03;;;22.90;99.90;;;;;;4997704;28;20426;-82
2021/08/06 10:03:03;;;;;;;7.73;7.03;;;22.70;99.90;;;;;;4980551;28;20415;-82
2021/08/06 10:05:32;;;;;;;7.07;6.57;;;22.50;99.90;;;;;;4980538;28;20910;-82
2021/08/06 10:08:01;;;;;;;8.27;7.70;;;22.40;99.90;;;;;;4997732;28;20187;-81
2021/08/06 10:10:31;;;;;;;8.37;7.77;;;22.50;99.90;;;;;;4997623;28;20413;-82
2021/08/06 10:12:58;;;;;;;8.43;7.83;;;22.70;99.90;;;;;;4997620;28;20708;-82
2021/08/06 10:15:25;;;;;;;8.77;8.00;;;23.10;99.90;;;;;;4980458;28;20421;-82
2021/08/06 10:17:52;;;;;;;7.23;6.70;;;23.40;99.90;;;;;;4997676;28;20493;-82
2021/08/06 10:20:21;;;;;;;9.93;7.43;;;23.40;99.90;;;;;;4997519;28;20813;-82
2021/08/06 10:22:47;;;;;;;8.37;7.77;;;23.60;99.90;;;;;;4980335;28;20414;-82
2021/08/06 10:25:15;;;;;;;7.70;7.00;;;23.90;99.90;;;;;;4997415;28;20406;-82
2021/08/06 10:27:43;;;;;;;8.23;7.00;;;23.90;99.90;;;;;;4997354;28;20450;-82
2021/08/06 10:30:09;;;;;;;7.97;7.40;;;24.00;99.90;;;;;;4980152;28;20411;-82
2021/08/06 10:32:37;;;;;;;7.63;7.13;;;24.10;99.90;;;;;;4997320;28;20433;-82
2021/08/06 10:35:02;;;;;;;7.53;6.93;;;24.20;99.90;;;;;;4980147;28;20871;-82
2021/08/06 10:37:47;;;;;;;7.60;7.00;;;24.20;99.90;;;;;;4997416;28;20402;-82
2021/08/06 10:40:32;;;;;;;8.10;7.50;;;24.30;99.90;;;;;;4996279;28;20188;-82
2021/08/06 10:43:10;;;;;;;7.60;6.83;;;24.50;99.90;;;;;;4979709;28;20403;-82
2021/08/06 10:45:45;;;;;;;6.60;6.20;;;24.60;99.90;;;;;;4997054;28;20417;-82
2021/08/06 10:48:37;;;;;;;6.73;6.23;;;24.50;99.90;;;;;;4995860;28;20528;-82
2021/08/06 10:51:18;;;;;;;7.07;6.57;;;24.30;99.90;;;;;;4996977;28;20964;-82
2021/08/06 10:53:57;;;;;;;7.10;6.60;;;24.40;99.90;;;;;;4996007;28;20733;-82
2021/08/06 10:56:30;;;;;;;5.87;5.57;;;24.70;99.90;;;;;;4996875;28;20387;-82
2021/08/06 10:59:10;;;;;;;5.83;5.43;;;24.80;99.90;;;;;;4996875;28;20560;-82
2021/08/06 11:01:45;;;;;;;6.43;6.03;;;24.50;99.90;;;;;;4995630;28;20406;-82
2021/08/06 11:04:14;;;;;;;5.60;5.30;;;24.30;99.90;;;;;;4996838;28;20408;-82
2021/08/06 11:06:54;;;;;;;5.00;4.70;;;24.40;99.90;;;;;;4996642;28;20731;-82
2021/08/06 11:09:26;;;;;;;5.23;4.93;;;24.50;99.90;;;;;;4996692;28;20402;-82
2021/08/06 11:12:12;;;;;;;6.07;5.67;;;24.70;99.90;;;;;;4995639;28;20793;-82
2021/08/06 11:14:40;;;;;;;5.73;5.33;;;25.10;99.90;;;;;;4979452;28;20880;-82
2021/08/06 11:17:16;;;;;;;4.67;4.47;;;25.20;99.90;;;;;;4996559;28;20457;-82
2021/08/06 11:19:45;;;;;;;4.97;4.67;;;25.00;99.90;;;;;;4996357;28;20418;-82
2021/08/06 11:22:16;;;;;;;4.60;4.23;;;24.90;99.90;;;;;;4996459;28;20888;-82
2021/08/06 11:24:48;;;;;;;3.90;3.70;;;24.80;99.90;;;;;;4995318;28;20425;-82
2021/08/06 11:27:15;;;;;;;4.10;3.90;;;24.70;99.90;;;;;;4996098;28;20454;-82
2021/08/06 11:29:42;;;;;;;4.47;4.17;;;24.50;99.90;;;;;;4979230;28;20891;-82
2021/08/06 11:32:14;;;;;;;4.93;4.63;;;24.30;99.90;;;;;;4996257;28;20433;-82
2021/08/06 11:35:00;;;;;;;4.20;3.90;;;24.70;99.90;;;;;;4996086;28;20402;-82
2021/08/06 11:37:51;;;;;;;3.20;3.10;;;25.30;99.90;;;;;;4996095;28;20421;-82
2021/08/06 11:40:19;;;;;;;2.97;2.77;;;25.40;99.90;;;;;;4977649;28;20765;-82
2021/08/06 11:42:45;;;;;;;2.87;2.77;;;25.30;99.90;;;;;;4978840;28;20411;-82
2021/08/06 11:45:13;;;;;;;2.93;2.83;;;24.90;99.90;;;;;;4978671;28;20433;-82
2021/08/06 11:47:47;;;;;;;2.33;2.13;;;24.50;99.90;;;;;;4995816;28;20457;-82
2021/08/06 11:50:35;;;;;;;2.30;2.20;;;24.10;99.90;;;;;;4995837;28;20407;-82
2021/08/06 11:53:01;;;;;;;2.30;2.20;;;23.90;99.90;;;;;;4978658;28;20477;-82
2021/08/06 11:55:30;;;;;;;2.20;2.10;;;24.00;99.90;;;;;;4995712;28;20880;-82
2021/08/06 11:57:58;;;;;;;1.93;1.83;;;24.00;99.90;;;;;;4994786;28;20186;-82
2021/08/06 12:00:33;;;;;;;1.93;1.83;;;24.10;99.90;;;;;;4995592;28;20525;-82
2021/08/06 12:03:02;;;;;;;3.20;3.00;;;24.10;99.90;;;;;;4995552;28;20482;-82
2021/08/06 12:05:28;;;;;;;3.33;2.57;;;24.00;99.90;;;;;;4978501;28;20414;-83
2021/08/06 12:07:53;;;;;;;2.53;2.43;;;23.90;99.90;;;;;;4978777;28;20459;-83
2021/08/06 12:10:24;;;;;;;6.83;2.60;;;23.60;99.90;;;;;;4995538;28;20272;-82
2021/08/06 12:12:50;;;;;;;3.20;3.00;;;23.50;99.90;;;;;;4978053;28;20663;-83
2021/08/06 12:15:20;;;;;;;3.20;3.03;;;23.40;99.90;;;;;;4995414;28;20411;-83
2021/08/06 12:17:46;;;;;;;2.87;2.67;;;23.70;99.90;;;;;;4995464;28;20202;-83
2021/08/06 12:20:12;;;;;;;3.00;2.90;;;24.20;99.90;;;;;;4995306;28;20485;-83
2021/08/06 12:22:41;;;;;;;2.90;2.80;;;24.60;99.90;;;;;;4995216;28;20564;-83
2021/08/06 12:25:14;;;;;;;2.70;2.60;;;25.20;99.90;;;;;;4995257;28;20265;-82
2021/08/06 12:27:39;;;;;;;2.73;2.63;;;25.60;99.90;;;;;;4995203;28;20934;-83
2021/08/06 12:30:28;;;;;;;3.73;3.53;;;26.10;99.90;;;;;;4995155;28;20414;-82
2021/08/06 12:32:53;;;;;;;2.47;2.37;;;26.40;99.90;;;;;;5013045;28;20492;-82
2021/08/06 12:35:21;;;;;;;3.17;2.97;;;26.60;99.90;;;;;;5014802;28;20408;-82
2021/08/06 12:37:47;;;;;;;2.60;2.50;;;26.80;99.90;;;;;;4993452;28;20172;-82
2021/08/06 12:40:13;;;;;;;2.37;2.27;;;26.90;99.90;;;;;;4994969;28;20411;-82
2021/08/06 12:42:39;;;;;;;2.57;2.47;;;26.70;99.90;;;;;;4977789;28;20411;-82
2021/08/06 12:45:21;;;;;;;2.60;2.50;;;26.30;99.90;;;;;;4995007;28;20413;-82
2021/08/06 12:47:49;;;;;;;2.40;2.30;;;26.00;99.90;;;;;;4978068;28;21005;-82